Time;durP1;ratioP1;P1;durP2;ratioP2;P2;SDS_P1;SDS_P2;PMS_P1;PMS_P2;Temp;Humidity;BMP_temperature;BMP_pressure;BME280_temperature;BME280_humidity;BME280_pressure;Samples;Min_cycle;Max_cycle;Signal;HPM_P1;HPM_P2
2022/05/21 00:00:13;;;;;;;5.63;2.72;;;;;;;22.15;39.24;101649.78;5099683;28;20039;-82
2022/05/21 00:02:41;;;;;;;4.45;2.47;;;;;;;22.14;39.17;101639.72;5091079;28;20124;-83
2022/05/21 00:05:09;;;;;;;4.35;2.40;;;;;;;22.13;39.00;101646.28;5089591;28;20414;-82
2022/05/21 00:07:35;;;;;;;4.80;2.55;;;;;;;22.10;39.18;101632.75;5073190;28;20071;-83
2022/05/21 00:10:02;;;;;;;3.97;2.65;;;;;;;22.08;39.32;101649.50;5093662;28;20135;-83
2022/05/21 00:12:29;;;;;;;3.92;2.75;;;;;;;22.07;38.91;101639.50;5092778;28;20127;-83
2022/05/21 00:14:57;;;;;;;4.13;2.42;;;;;;;22.05;39.25;101640.69;5083005;28;20133;-82
2022/05/21 00:17:23;;;;;;;4.13;2.60;;;;;;;22.04;39.17;101637.03;5081564;28;20078;-83
2022/05/21 00:19:50;;;;;;;3.90;2.50;;;;;;;22.02;39.64;101639.97;5088683;28;20082;-83
2022/05/21 00:22:16;;;;;;;4.25;2.70;;;;;;;21.99;39.09;101636.63;5086992;28;20177;-83
2022/05/21 00:24:43;;;;;;;4.20;2.80;;;;;;;21.98;38.95;101632.16;5100369;28;20044;-83
2022/05/21 00:27:10;;;;;;;3.75;2.53;;;;;;;21.95;39.25;101627.75;5096904;28;20134;-82
2022/05/21 00:29:36;;;;;;;4.25;2.78;;;;;;;21.94;39.74;101633.44;5109505;28;20066;-83
2022/05/21 00:32:03;;;;;;;5.95;2.65;;;;;;;21.93;39.12;101624.28;5072459;28;20131;-82
2022/05/21 00:34:31;;;;;;;3.95;2.53;;;;;;;21.92;39.13;101624.44;5074854;28;20132;-82
2022/05/21 00:36:58;;;;;;;4.15;2.63;;;;;;;21.90;39.47;101623.75;5073711;28;20094;-83
2022/05/21 00:39:25;;;;;;;4.63;2.80;;;;;;;21.89;39.49;101628.41;5075386;28;20132;-82
2022/05/21 00:41:51;;;;;;;4.38;2.55;;;;;;;21.87;39.61;101627.69;5081608;28;20048;-83
2022/05/21 00:44:18;;;;;;;6.18;2.75;;;;;;;21.86;39.63;101622.31;5075897;28;20496;-83
2022/05/21 00:46:48;;;;;;;4.68;2.80;;;;;;;21.85;39.73;101632.50;5081618;28;20048;-83
2022/05/21 00:49:27;;;;;;;4.82;3.22;;;;;;;21.86;39.37;101637.00;5089911;28;20064;-82
2022/05/21 00:52:14;;;;;;;3.95;2.67;;;;;;;21.84;39.85;101633.50;5087917;28;20553;-82
2022/05/21 00:54:45;;;;;;;4.57;2.75;;;;;;;21.81;39.68;101639.38;5073212;28;20127;-83
2022/05/21 00:57:25;;;;;;;4.68;2.70;;;;;;;21.82;39.52;101643.00;5099722;28;20072;-83
2022/05/21 00:59:57;;;;;;;5.55;2.88;;;;;;;21.79;39.57;101646.06;5092781;28;20040;-82
2022/05/21 01:02:35;;;;;;;4.57;3.00;;;;;;;21.77;39.70;101642.59;5085701;28;20066;-83
2022/05/21 01:05:07;;;;;;;4.80;2.40;;;;;;;21.75;39.85;101639.09;5092354;28;20052;-82
2022/05/21 01:07:37;;;;;;;3.90;2.47;;;;;;;21.73;39.38;101636.53;5067810;28;20054;-83
2022/05/21 01:10:05;;;;;;;4.55;3.28;;;;;;;21.71;39.86;101633.03;5095655;28;20048;-82
2022/05/21 01:12:40;;;;;;;4.38;2.63;;;;;;;21.73;39.85;101633.75;5088979;28;20097;-82
2022/05/21 01:15:12;;;;;;;4.28;2.70;;;;;;;21.70;39.58;101634.06;5097665;28;20119;-81
2022/05/21 01:17:38;;;;;;;4.60;2.65;;;;;;;21.65;39.85;101636.44;5087694;28;20155;-82
2022/05/21 01:20:13;;;;;;;4.68;2.78;;;;;;;21.69;39.85;101628.69;5069644;28;20135;-82
2022/05/21 01:22:41;;;;;;;4.40;2.78;;;;;;;21.66;39.84;101629.00;5090996;28;20052;-82
2022/05/21 01:25:09;;;;;;;5.72;2.95;;;;;;;21.63;39.79;101628.28;5087510;28;20048;-82
2022/05/21 01:27:36;;;;;;;4.53;2.75;;;;;;;21.62;39.94;101631.19;5094418;28;20101;-82
2022/05/21 01:30:06;;;;;;;4.97;2.90;;;;;;;21.63;39.98;101635.72;5076403;28;20079;-82
2022/05/21 01:32:36;;;;;;;5.18;3.33;;;;;;;21.58;40.21;101633.38;5084582;28;20407;-82
2022/05/21 01:35:04;;;;;;;5.20;2.88;;;;;;;21.57;39.56;101631.69;5089268;28;20679;-82
2022/05/21 01:37:31;;;;;;;5.00;2.83;;;;;;;21.55;40.42;101628.19;5069051;28;20032;-82
2022/05/21 01:39:57;;;;;;;6.03;3.15;;;;;;;21.55;39.89;101621.78;5091952;28;20061;-82
2022/05/21 01:42:24;;;;;;;5.20;3.10;;;;;;;21.53;40.20;101616.41;5070437;28;20052;-82
2022/05/21 01:44:52;;;;;;;5.45;3.20;;;;;;;21.53;39.76;101615.53;5092028;28;20056;-82
2022/05/21 01:47:20;;;;;;;6.32;3.53;;;;;;;21.52;39.74;101624.84;5072398;28;20051;-82
2022/05/21 01:49:47;;;;;;;5.50;3.42;;;;;;;21.49;39.67;101628.81;5071664;28;20054;-82
2022/05/21 01:52:14;;;;;;;5.40;3.55;;;;;;;21.48;40.18;101626.22;5067143;28;20054;-82
2022/05/21 01:54:41;;;;;;;4.25;2.83;;;;;;;21.47;39.95;101624.47;5079271;28;20091;-82
2022/05/21 01:57:09;;;;;;;5.90;3.22;;;;;;;21.46;39.78;101625.47;5089591;28;20127;-82
2022/05/21 01:59:36;;;;;;;5.68;3.40;;;;;;;21.45;39.86;101629.25;5085210;28;20211;-83
2022/05/21 02:02:04;;;;;;;5.60;3.47;;;;;;;21.43;40.23;101621.13;5087497;28;20060;-82
2022/05/21 02:04:31;;;;;;;5.55;3.15;;;;;;;21.40;40.49;101629.75;5088778;28;20051;-82
2022/05/21 02:06:57;;;;;;;6.25;3.55;;;;;;;21.40;40.09;101629.75;5095654;28;20127;-82
2022/05/21 02:09:24;;;;;;;4.50;2.92;;;;;;;21.39;40.22;101616.94;5087082;28;20204;-82
2022/05/21 02:11:51;;;;;;;5.60;3.42;;;;;;;21.38;40.17;101630.91;5091680;28;20138;-82
2022/05/21 02:14:17;;;;;;;5.43;3.47;;;;;;;21.37;40.12;101627.28;5077470;28;20074;-82
2022/05/21 02:16:44;;;;;;;5.90;3.90;;;;;;;21.35;40.10;101628.44;5092878;28;20585;-82
2022/05/21 02:19:11;;;;;;;6.07;3.13;;;;;;;21.35;40.40;101620.16;5076252;28;20418;-82
2022/05/21 02:21:40;;;;;;;5.50;3.33;;;;;;;21.34;39.86;101624.81;5077759;28;20048;-82
2022/05/21 02:24:08;;;;;;;6.53;3.33;;;;;;;21.33;40.27;101611.19;5081053;28;20135;-82
2022/05/21 02:26:39;;;;;;;5.07;3.13;;;;;;;21.33;39.72;101609.25;5090551;28;20101;-83
2022/05/21 02:29:06;;;;;;;5.40;3.35;;;;;;;21.30;40.26;101612.34;5073851;28;20071;-82
2022/05/21 02:31:33;;;;;;;5.60;3.13;;;;;;;21.27;40.49;101618.16;5076548;28;20059;-82
2022/05/21 02:33:59;;;;;;;5.30;3.15;;;;;;;21.26;39.84;101619.19;5095004;28;20519;-82
2022/05/21 02:39:30;;;;;;;5.33;2.90;;;;;;;21.20;40.11;101611.53;5095426;28;20047;-83
2022/05/21 02:41:58;;;;;;;4.88;2.40;;;;;;;21.21;40.20;101619.66;5086520;28;20564;-82
2022/05/21 02:44:25;;;;;;;5.68;2.50;;;;;;;21.20;40.04;101622.56;5091942;28;20071;-82
2022/05/21 02:46:53;;;;;;;4.13;2.22;;;;;;;21.20;40.33;101619.81;5093108;28;20083;-82
2022/05/21 02:49:20;;;;;;;5.20;2.55;;;;;;;21.19;39.93;101618.06;5094549;28;20114;-82
2022/05/21 02:51:47;;;;;;;3.60;2.20;;;;;;;21.18;39.96;101622.72;5069779;28;20377;-82
2022/05/21 02:54:24;;;;;;;3.83;2.20;;;;;;;21.17;40.50;101618.22;5080037;28;20418;-82
2022/05/21 02:56:51;;;;;;;4.57;2.45;;;;;;;21.17;40.30;101618.22;5093423;28;20128;-82
2022/05/21 02:59:18;;;;;;;4.60;2.22;;;;;;;21.18;40.46;101624.59;5086453;28;20109;-82
2022/05/21 03:01:45;;;;;;;4.03;2.17;;;;;;;21.17;40.23;101620.09;5088655;28;20556;-82
2022/05/21 03:04:12;;;;;;;3.03;1.85;;;;;;;21.16;40.11;101632.16;5067671;28;20461;-82
2022/05/21 03:06:38;;;;;;;4.22;1.80;;;;;;;21.17;40.01;101628.38;5086805;28;20082;-82
2022/05/21 03:11:50;;;;;;;4.53;1.90;;;;;;;21.14;40.34;101634.19;5106569;28;20074;-82
2022/05/21 03:14:17;;;;;;;3.45;1.50;;;;;;;21.14;39.94;101628.66;5077488;28;20071;-82
2022/05/21 03:16:44;;;;;;;5.07;1.65;;;;;;;21.13;40.06;101630.56;5082350;28;20067;-82
2022/05/21 03:19:10;;;;;;;3.08;1.50;;;;;;;21.12;40.20;101633.47;5088929;28;20101;-82
2022/05/21 03:21:37;;;;;;;3.42;1.48;;;;;;;21.11;40.14;101640.88;5087228;28;20068;-82
2022/05/21 03:24:04;;;;;;;2.95;1.50;;;;;;;21.11;40.06;101637.25;5096608;28;20128;-82
2022/05/21 03:26:31;;;;;;;3.17;1.48;;;;;;;21.10;39.32;101638.25;5098973;28;20040;-82
2022/05/21 03:28:58;;;;;;;3.40;1.50;;;;;;;21.08;39.52;101640.34;5088132;28;20511;-82
2022/05/21 03:31:25;;;;;;;3.20;1.42;;;;;;;21.06;39.99;101647.88;5085906;28;20094;-82
2022/05/21 03:33:52;;;;;;;2.97;1.45;;;;;;;21.05;39.37;101641.50;5099937;28;20147;-82
2022/05/21 03:36:18;;;;;;;3.70;1.60;;;;;;;21.04;39.22;101644.41;5083773;28;20051;-82
2022/05/21 03:38:45;;;;;;;3.35;1.50;;;;;;;21.00;39.92;101649.34;5069788;28;20072;-82
2022/05/21 03:41:11;;;;;;;3.55;1.50;;;;;;;20.99;39.87;101650.38;5070230;28;20571;-83
2022/05/21 03:43:38;;;;;;;4.22;1.80;;;;;;;20.97;39.12;101649.66;5070823;28;20166;-83
2022/05/21 03:46:04;;;;;;;3.78;1.60;;;;;;;20.95;39.99;101651.69;5089253;28;20119;-83
2022/05/21 03:48:31;;;;;;;2.47;1.55;;;;;;;20.94;39.85;101643.56;5098323;28;20052;-83
2022/05/21 03:50:58;;;;;;;2.97;1.40;;;;;;;20.92;39.97;101659.44;5064031;28;20051;-83
2022/05/21 03:53:28;;;;;;;3.97;1.60;;;;;;;20.91;40.35;101643.88;5068311;28;20554;-82
2022/05/21 03:55:56;;;;;;;3.25;1.55;;;;;;;20.91;39.81;101650.28;5076236;28;20097;-83
2022/05/21 03:58:23;;;;;;;3.63;1.58;;;;;;;20.91;39.85;101642.00;5070434;28;20040;-83
2022/05/21 04:00:50;;;;;;;4.88;1.70;;;;;;;20.90;39.32;101634.72;5075327;28;20040;-82
2022/05/21 04:03:17;;;;;;;3.65;1.48;;;;;;;20.87;39.36;101644.16;5089470;28;20040;-82
2022/05/21 04:05:44;;;;;;;3.95;1.50;;;;;;;20.83;39.50;101648.25;5077346;28;20147;-83
2022/05/21 04:08:11;;;;;;;3.13;1.65;;;;;;;20.80;39.21;101644.91;5087422;28;20044;-83
2022/05/21 04:10:38;;;;;;;5.20;1.58;;;;;;;20.77;39.04;101653.47;5089711;28;20052;-83
2022/05/21 04:13:04;;;;;;;2.97;1.60;;;;;;;20.74;39.90;101640.88;5065782;28;20068;-83
2022/05/21 04:15:31;;;;;;;2.67;1.42;;;;;;;20.72;39.71;101653.94;5082684;28;20059;-83
2022/05/21 04:17:57;;;;;;;3.97;1.35;;;;;;;20.69;39.16;101651.47;5083908;28;20102;-83
2022/05/21 04:20:24;;;;;;;5.13;1.90;;;;;;;20.67;39.85;101659.03;5093116;28;20139;-83
2022/05/21 04:22:52;;;;;;;3.00;1.63;;;;;;;20.66;39.81;101662.81;5084996;28;20068;-83
2022/05/21 04:25:19;;;;;;;5.68;1.58;;;;;;;20.64;39.63;101667.63;5094264;28;20147;-83
2022/05/21 04:27:46;;;;;;;3.95;1.45;;;;;;;20.63;39.80;101663.13;5086905;28;20120;-83
2022/05/21 04:30:18;;;;;;;3.83;1.92;;;;;;;20.64;39.84;101662.09;5102088;28;20055;-84
2022/05/21 04:32:45;;;;;;;4.05;1.80;;;;;;;20.59;40.07;101666.34;5074516;28;20075;-83
2022/05/21 04:35:13;;;;;;;4.50;1.80;;;;;;;20.62;39.69;101682.56;5094571;28;20514;-83
2022/05/21 04:37:40;;;;;;;4.05;1.67;;;;;;;20.61;39.75;101667.91;5073392;28;20154;-83
2022/05/21 04:40:14;;;;;;;3.70;1.80;;;;;;;20.61;39.31;101670.66;5066282;28;20072;-83
2022/05/21 04:42:40;;;;;;;3.88;1.90;;;;;;;20.56;40.01;101673.00;5103538;28;20109;-83
2022/05/21 04:45:09;;;;;;;4.45;1.95;;;;;;;20.57;39.84;101680.25;5075510;28;20432;-83
2022/05/21 04:47:35;;;;;;;4.95;2.15;;;;;;;20.54;39.53;101677.78;5099088;28;20044;-83
2022/05/21 04:50:04;;;;;;;4.18;1.98;;;;;;;20.52;39.36;101677.94;5099288;28;20087;-82
2022/05/21 04:52:31;;;;;;;3.30;2.00;;;;;;;20.49;39.32;101677.38;5088839;28;20101;-83
2022/05/21 04:55:00;;;;;;;4.55;1.95;;;;;;;20.47;39.36;101679.41;5091865;28;20060;-83
2022/05/21 04:57:26;;;;;;;4.97;2.00;;;;;;;20.45;39.11;101675.91;5086366;28;20040;-83
2022/05/21 04:59:53;;;;;;;3.55;1.98;;;;;;;20.43;39.82;101687.09;5094795;28;20078;-83
2022/05/21 05:02:20;;;;;;;4.43;2.58;;;;;;;20.44;39.31;101696.22;5094856;28;20048;-83
2022/05/21 05:04:47;;;;;;;4.25;2.05;;;;;;;20.39;39.30;101693.94;5084402;28;20512;-82
2022/05/21 05:07:13;;;;;;;4.25;2.08;;;;;;;20.39;39.71;101695.81;5067874;28;20061;-83
2022/05/21 05:09:42;;;;;;;3.65;2.05;;;;;;;20.39;39.93;101699.44;5078450;28;20120;-84
2022/05/21 05:12:09;;;;;;;5.68;2.47;;;;;;;20.38;39.67;101694.94;5087714;28;20056;-84
2022/05/21 05:14:37;;;;;;;4.15;2.10;;;;;;;20.36;39.58;101701.59;5093236;28;20404;-84
2022/05/21 05:17:05;;;;;;;4.05;2.15;;;;;;;20.36;39.74;101698.84;5097649;28;20071;-85
2022/05/21 05:19:33;;;;;;;3.00;1.85;;;;;;;20.35;39.39;101706.25;5070029;28;20279;-83
2022/05/21 05:21:59;;;;;;;4.75;2.30;;;;;;;20.34;39.52;101706.41;5087641;28;20071;-84
2022/05/21 05:24:26;;;;;;;4.53;2.10;;;;;;;20.32;39.84;101698.25;5090021;28;20047;-85
2022/05/21 05:26:52;;;;;;;4.80;2.50;;;;;;;20.33;40.01;101699.13;5089277;28;20126;-85
2022/05/21 05:29:19;;;;;;;4.32;2.38;;;;;;;20.32;40.23;101705.66;5098367;28;20478;-85
2022/05/21 05:31:46;;;;;;;6.30;2.63;;;;;;;20.33;39.90;101699.13;5073519;28;20083;-84
2022/05/21 05:34:12;;;;;;;4.57;2.42;;;;;;;20.33;40.08;101693.59;5073785;28;20171;-84
2022/05/21 05:36:39;;;;;;;4.07;2.03;;;;;;;20.34;39.86;101695.38;5075999;28;20056;-83
2022/05/21 05:39:06;;;;;;;4.57;2.47;;;;;;;20.36;40.05;101701.59;5092243;28;20127;-84
2022/05/21 05:41:37;;;;;;;5.80;2.42;;;;;;;20.37;40.19;101693.19;5100328;28;20270;-83
2022/05/21 05:44:04;;;;;;;5.40;2.33;;;;;;;20.36;40.19;101702.47;5098410;28;20070;-83
2022/05/21 05:46:31;;;;;;;7.28;2.72;;;;;;;20.38;39.86;101699.59;5088777;28;20047;-83
2022/05/21 05:48:58;;;;;;;5.07;2.20;;;;;;;20.37;40.00;101697.84;5095127;28;20051;-83
2022/05/21 05:51:25;;;;;;;3.85;2.08;;;;;;;20.37;40.36;101701.47;5087806;28;20043;-83
2022/05/21 05:53:52;;;;;;;4.00;2.17;;;;;;;20.40;39.93;101701.19;5089990;28;20067;-82
2022/05/21 05:56:26;;;;;;;5.78;2.30;;;;;;;20.45;40.13;101706.25;5088625;28;20086;-82
2022/05/21 06:01:37;;;;;;;5.28;2.28;;;;;;;20.41;39.95;101704.81;5090462;28;20043;-83
2022/05/21 06:04:04;;;;;;;4.15;2.22;;;;;;;20.45;39.99;101709.00;5070985;28;20135;-82
2022/05/21 06:06:31;;;;;;;6.05;2.47;;;;;;;20.47;40.07;101709.75;5087943;28;20040;-84
2022/05/21 06:09:01;;;;;;;3.50;2.20;;;;;;;20.48;40.07;101715.13;5082352;28;20048;-84
2022/05/21 06:11:28;;;;;;;3.92;2.00;;;;;;;20.49;40.46;101710.47;5091874;28;20047;-83
2022/05/21 06:13:55;;;;;;;2.95;1.95;;;;;;;20.50;39.81;101709.47;5083733;28;20044;-84
2022/05/21 06:16:21;;;;;;;4.85;1.67;;;;;;;20.50;40.11;101714.97;5068238;28;20039;-83
2022/05/21 06:18:50;;;;;;;4.03;1.60;;;;;;;20.51;40.13;101716.69;5086380;28;20101;-83
2022/05/21 06:21:16;;;;;;;2.67;1.67;;;;;;;20.51;40.26;101719.44;5069293;28;20049;-83
2022/05/21 06:23:44;;;;;;;3.80;1.80;;;;;;;20.52;39.86;101723.97;5069994;28;20087;-82
2022/05/21 06:26:13;;;;;;;4.65;2.17;;;;;;;20.53;40.56;101714.66;5064026;28;20132;-83
2022/05/21 06:28:40;;;;;;;5.05;2.20;;;;;;;20.53;39.93;101717.44;5078493;28;20130;-84
2022/05/21 06:31:07;;;;;;;5.70;2.22;;;;;;;20.53;40.19;101720.19;5070071;28;20258;-82
2022/05/21 06:33:34;;;;;;;4.82;2.50;;;;;;;20.54;39.71;101718.31;5067652;28;20051;-82
2022/05/21 06:36:05;;;;;;;5.28;2.40;;;;;;;20.55;40.10;101723.69;5063126;28;20707;-82
2022/05/21 06:38:36;;;;;;;4.25;2.35;;;;;;;20.52;39.98;101721.19;5071917;28;20072;-82
2022/05/21 06:41:03;;;;;;;6.30;2.40;;;;;;;20.52;39.85;101722.06;5086564;28;20043;-82
2022/05/21 06:43:29;;;;;;;5.15;2.50;;;;;;;20.51;39.82;101719.44;5069147;28;20115;-83
2022/05/21 06:45:57;;;;;;;4.88;2.83;;;;;;;20.51;39.72;101725.84;5081484;28;20062;-83
2022/05/21 06:48:24;;;;;;;5.68;2.50;;;;;;;20.49;39.86;101725.16;5081837;28;20051;-82
2022/05/21 06:50:50;;;;;;;5.40;2.60;;;;;;;20.48;40.25;101728.03;5087965;28;20080;-81
2022/05/21 06:53:17;;;;;;;5.93;2.70;;;;;;;20.47;40.05;101729.06;5085351;28;20131;-82
2022/05/21 06:55:44;;;;;;;5.32;2.72;;;;;;;20.47;40.24;101724.41;5085717;28;20084;-82
2022/05/21 06:58:11;;;;;;;4.45;2.63;;;;;;;20.48;40.63;101728.91;5063596;28;20044;-82
2022/05/21 07:00:38;;;;;;;4.95;2.65;;;;;;;20.50;41.13;101726.00;5071741;28;20105;-82
2022/05/21 07:03:05;;;;;;;5.47;2.60;;;;;;;20.50;40.66;101737.94;5088140;28;20142;-83
2022/05/21 07:08:34;;;;;;;7.93;3.05;;;;;;;20.50;40.41;101746.19;4982268;28;20103;-83
2022/05/21 07:11:00;;;;;;;5.47;2.92;;;;;;;20.54;40.78;101732.09;5055859;28;20090;-83
2022/05/21 07:13:30;;;;;;;5.57;2.67;;;;;;;20.56;40.77;101741.97;5071782;28;20044;-82
2022/05/21 07:15:58;;;;;;;6.22;2.75;;;;;;;20.57;40.51;101740.09;5069779;28;20448;-82
2022/05/21 07:18:26;;;;;;;6.03;2.90;;;;;;;20.58;40.62;101745.47;5094720;28;20044;-81
2022/05/21 07:20:55;;;;;;;5.47;2.95;;;;;;;20.59;40.76;101749.09;5098213;28;20091;-82
2022/05/21 07:23:24;;;;;;;6.03;3.00;;;;;;;20.60;40.66;101746.19;5092799;28;20072;-80
2022/05/21 07:25:52;;;;;;;4.82;2.70;;;;;;;20.60;40.77;101748.94;5077140;28;20097;-82
2022/05/21 07:28:19;;;;;;;6.13;3.08;;;;;;;20.61;40.64;101755.31;5094199;28;20091;-81
2022/05/21 07:30:46;;;;;;;4.78;3.00;;;;;;;20.64;40.51;101755.91;5072003;28;20135;-81
2022/05/21 07:33:16;;;;;;;5.70;3.10;;;;;;;20.67;40.53;101743.72;5085984;28;20068;-81
2022/05/21 07:35:43;;;;;;;5.68;2.97;;;;;;;20.67;40.84;101746.50;5071854;28;20048;-82
2022/05/21 07:38:13;;;;;;;5.90;2.67;;;;;;;20.69;40.26;101748.06;5073303;28;20067;-82
2022/05/21 07:40:41;;;;;;;5.43;3.17;;;;;;;20.70;40.22;101751.69;5092723;28;20109;-82
2022/05/21 07:43:21;;;;;;;6.03;3.03;;;;;;;20.73;40.41;101765.22;5068415;28;20047;-82
2022/05/21 07:45:49;;;;;;;8.02;2.83;;;;;;;20.70;40.38;101760.84;5086164;28;20127;-82
2022/05/21 07:48:21;;;;;;;6.28;3.28;;;;;;;20.71;39.83;101759.84;5090649;28;20066;-82
2022/05/21 07:50:54;;;;;;;4.22;2.85;;;;;;;20.71;40.08;101759.84;5065961;28;20124;-82
2022/05/21 07:53:24;;;;;;;8.32;3.17;;;;;;;20.70;40.28;101773.78;5080994;28;20044;-82
2022/05/21 07:55:52;;;;;;;4.97;2.90;;;;;;;20.69;40.14;101769.25;5084805;28;20109;-82
2022/05/21 07:58:22;;;;;;;5.82;3.22;;;;;;;20.71;40.52;101773.63;5084949;28;20086;-82
2022/05/21 08:00:49;;;;;;;6.68;2.85;;;;;;;20.70;40.03;101777.41;5081900;28;20047;-82
2022/05/21 08:03:17;;;;;;;8.23;3.30;;;;;;;20.69;40.01;101777.53;5069331;28;20044;-82
2022/05/21 08:05:44;;;;;;;5.40;2.63;;;;;;;20.68;40.14;101778.56;5086592;28;20139;-82
2022/05/21 08:08:12;;;;;;;7.10;3.20;;;;;;;20.68;40.65;101773.03;5069914;28;20040;-82
2022/05/21 08:10:42;;;;;;;4.63;2.53;;;;;;;20.70;40.05;101779.28;5086228;28;20059;-82
2022/05/21 08:13:10;;;;;;;6.93;3.05;;;;;;;20.69;40.01;101781.19;5085271;28;20473;-82
2022/05/21 08:15:38;;;;;;;5.90;2.97;;;;;;;20.70;40.69;101782.94;5064487;28;20101;-83
2022/05/21 08:18:06;;;;;;;4.97;2.63;;;;;;;20.69;40.17;101772.03;5086048;28;20137;-84
2022/05/21 08:20:34;;;;;;;5.25;2.95;;;;;;;20.71;40.10;101789.31;5075660;28;20109;-83
2022/05/21 08:28:32;;;;;;;6.30;2.80;;;;;;;20.69;40.45;101789.47;5087312;28;20329;-81
2022/05/21 08:31:01;;;;;;;5.45;2.45;;;;;;;20.73;39.78;101801.97;5084979;28;20047;-86
2022/05/21 08:33:28;;;;;;;6.13;2.65;;;;;;;20.72;40.16;101794.69;5069500;28;20048;-84
2022/05/21 08:35:55;;;;;;;4.00;2.33;;;;;;;20.74;40.33;101797.31;5061531;28;20049;-81
2022/05/21 08:38:21;;;;;;;8.32;2.70;;;;;;;20.75;40.37;101797.19;5069362;28;20691;-81
2022/05/21 08:40:56;;;;;;;5.28;2.40;;;;;;;20.81;40.08;101798.47;5087780;28;20126;-81
2022/05/21 08:43:55;;;;;;;6.28;2.75;;;;;;;20.75;39.91;101805.47;5079268;28;20048;-82
2022/05/21 08:46:42;;;;;;;4.70;2.65;;;;;;;20.83;40.19;101799.22;5045981;28;20044;-84
2022/05/21 08:49:29;;;;;;;4.95;2.50;;;;;;;20.86;39.76;101804.41;5101399;28;20101;-83
2022/05/21 08:52:35;;;;;;;7.22;3.13;;;;;;;20.87;39.95;101811.69;5091134;28;20516;-83
2022/05/21 08:55:05;;;;;;;6.32;2.92;;;;;;;20.88;40.01;101805.16;5059315;28;20036;-84
2022/05/21 08:57:57;;;;;;;6.43;2.95;;;;;;;20.89;39.85;101813.28;5070518;28;20067;-83
2022/05/21 09:00:37;;;;;;;5.97;2.63;;;;;;;20.94;39.61;101814.72;5088897;28;20167;-83
2022/05/21 09:03:09;;;;;;;5.85;2.72;;;;;;;20.94;40.00;101814.72;5086673;28;20398;-84
2022/05/21 09:05:40;;;;;;;6.63;2.65;;;;;;;21.00;40.04;101815.00;5092310;28;20040;-84
2022/05/21 09:08:27;;;;;;;7.55;2.70;;;;;;;21.03;40.50;101811.09;5074127;28;20050;-83
2022/05/21 09:11:11;;;;;;;4.40;2.50;;;;;;;21.11;40.09;101801.06;5079494;28;20406;-83
2022/05/21 09:13:44;;;;;;;7.07;2.60;;;;;;;21.17;40.53;101803.25;5091330;28;20450;-83
2022/05/21 09:19:00;;;;;;;4.03;2.40;;;;;;;21.27;40.19;101801.34;5090430;28;20352;-83
2022/05/21 09:21:28;;;;;;;8.60;2.85;;;;;;;21.35;39.98;101799.72;5086971;28;20453;-83
2022/05/21 09:23:59;;;;;;;5.63;2.20;;;;;;;21.44;39.98;101794.16;5089215;28;20083;-83
2022/05/21 09:26:42;;;;;;;6.70;2.42;;;;;;;21.52;40.08;101797.06;5103658;28;20503;-83
2022/05/21 09:29:16;;;;;;;;;;;;;;;21.30;40.47;101802.06;5094129;28;20093;-83
2022/05/21 09:31:43;;;;;;;5.22;2.40;;;;;;;21.62;40.02;101797.91;5093751;28;19935;-84
2022/05/21 09:34:30;;;;;;;5.05;2.22;;;;;;;21.78;39.97;101790.84;5090479;28;20390;-83
2022/05/21 09:36:59;;;;;;;4.70;2.13;;;;;;;21.84;39.88;101793.00;5095183;28;20146;-84
2022/05/21 09:39:29;;;;;;;5.68;2.42;;;;;;;21.93;39.40;101794.84;5090850;28;20071;-83
2022/05/21 09:42:08;;;;;;;5.70;2.40;;;;;;;21.99;38.86;101791.50;5103445;28;20071;-83
2022/05/21 09:47:25;;;;;;;6.05;2.40;;;;;;;22.10;39.18;101794.06;5095659;28;20129;-86
2022/05/21 09:50:01;;;;;;;5.30;2.05;;;;;;;22.14;39.19;101797.41;5095857;28;20499;-84
2022/05/21 09:52:30;;;;;;;5.05;2.08;;;;;;;22.19;39.40;101797.78;5097433;28;20048;-83
2022/05/21 09:54:58;;;;;;;6.13;2.25;;;;;;;22.19;39.14;101790.38;5090394;28;20067;-83
2022/05/21 09:57:42;;;;;;;5.65;2.20;;;;;;;22.27;38.56;101792.34;5091127;28;20387;-83
2022/05/21 10:00:19;;;;;;;4.53;2.05;;;;;;;22.31;38.06;101794.66;5096137;28;20044;-83
2022/05/21 10:02:49;;;;;;;4.93;2.50;;;;;;;22.32;38.22;101796.38;5084906;28;20411;-83
2022/05/21 10:05:23;;;;;;;5.03;1.90;;;;;;;22.35;38.00;101801.63;5086751;28;20048;-83
2022/05/21 10:10:58;;;;;;;4.97;2.00;;;;;;;22.36;38.40;101789.53;5080579;28;20043;-83
2022/05/21 10:13:31;;;;;;;5.43;2.13;;;;;;;22.40;38.25;101790.94;5085403;28;20077;-82
2022/05/21 10:16:33;;;;;;;4.57;1.88;;;;;;;22.40;38.18;101793.69;5070820;28;20140;-83
2022/05/21 10:19:36;;;;;;;5.35;2.45;;;;;;;22.48;37.68;101792.94;5059078;28;20435;-84
2022/05/21 10:22:05;;;;;;;;;;;;;;;22.23;38.58;101783.50;5089744;28;20051;-83
2022/05/21 10:24:42;;;;;;;6.47;2.03;;;;;;;22.58;37.78;101777.13;5090022;28;19927;-86
2022/05/21 10:27:35;;;;;;;4.78;2.10;;;;;;;22.68;37.64;101780.69;5089217;28;20051;-84
2022/05/21 10:30:28;;;;;;;5.40;2.22;;;;;;;22.71;37.46;101785.91;5087696;28;20105;-84
2022/05/21 10:33:12;;;;;;;4.28;1.77;;;;;;;22.82;37.41;101784.81;5060459;28;20048;-82
2022/05/21 10:35:57;;;;;;;5.32;2.28;;;;;;;22.92;37.20;101782.81;5055678;28;20113;-85
2022/05/21 10:38:37;;;;;;;3.28;1.90;;;;;;;23.01;37.05;101787.41;5070106;28;20035;-84
2022/05/21 10:41:11;;;;;;;3.92;2.10;;;;;;;23.09;37.53;101779.16;5083080;28;20566;-85
2022/05/21 10:43:46;;;;;;;4.20;2.03;;;;;;;23.18;37.71;101787.53;5085795;28;20079;-85
2022/05/21 10:47:07;;;;;;;3.78;1.95;;;;;;;23.29;36.54;101790.03;5063584;28;20100;-83
2022/05/21 10:49:54;;;;;;;3.63;2.08;;;;;;;23.41;37.26;101799.81;5025597;28;20057;-82
2022/05/21 10:52:23;;;;;;;5.45;2.38;;;;;;;23.47;36.70;101797.25;5025813;28;20054;-82
2022/05/21 10:55:08;;;;;;;4.72;2.33;;;;;;;23.58;36.35;101795.28;5008894;28;20640;-82
2022/05/21 10:58:04;;;;;;;4.60;1.92;;;;;;;23.65;36.20;101796.34;5023570;28;20053;-82
2022/05/21 11:01:01;;;;;;;5.22;2.08;;;;;;;23.71;35.61;101791.03;5023648;28;20633;-82
2022/05/21 11:04:03;;;;;;;5.45;2.10;;;;;;;23.74;35.63;101787.03;5020611;28;20053;-82
2022/05/21 11:07:01;;;;;;;4.82;2.10;;;;;;;23.76;35.65;101782.22;5008265;28;20045;-82
2022/05/21 11:09:39;;;;;;;5.13;1.92;;;;;;;23.78;35.59;101785.69;5006267;28;20038;-81
2022/05/21 11:12:16;;;;;;;3.67;1.90;;;;;;;23.81;35.60;101782.56;5025432;28;20262;-82
2022/05/21 11:14:49;;;;;;;3.30;1.90;;;;;;;23.82;35.64;101779.63;5027386;28;20488;-78
2022/05/21 11:17:21;;;;;;;8.05;2.58;;;;;;;23.83;36.49;101775.84;5031657;28;20463;-82
2022/05/21 11:19:51;;;;;;;;;;;;;;;23.58;37.11;101781.41;5027973;28;20045;-83
2022/05/21 11:22:41;;;;;;;6.75;2.08;;;;;;;23.88;36.90;101776.19;5009429;28;19921;-83
2022/05/21 11:25:14;;;;;;;6.07;2.17;;;;;;;23.96;36.09;101772.63;5087969;28;20068;-83
2022/05/21 11:28:03;;;;;;;4.82;2.17;;;;;;;24.03;35.90;101770.91;5062115;28;20051;-85
2022/05/21 11:30:30;;;;;;;5.28;2.65;;;;;;;24.07;36.40;101765.88;5077694;28;20482;-86
2022/05/21 11:38:49;;;;;;;5.72;2.28;;;;;;;24.26;36.23;101773.94;5091044;28;20517;-85
2022/05/21 11:41:30;;;;;;;4.53;2.25;;;;;;;24.31;36.02;101785.41;5081841;28;20127;-85
2022/05/21 11:46:54;;;;;;;4.07;2.33;;;;;;;24.41;35.85;101771.38;5077690;28;20539;-86
2022/05/21 11:49:27;;;;;;;5.28;2.28;;;;;;;24.47;34.43;101774.31;5091473;28;20059;-87
2022/05/21 11:51:54;;;;;;;;;;;;;;;24.20;36.61;101755.16;5079200;28;20163;-87
2022/05/21 11:54:45;;;;;;;5.03;2.05;;;;;;;24.46;35.22;101767.03;5101944;28;19920;-85
2022/05/21 11:57:34;;;;;;;5.25;2.25;;;;;;;24.49;35.13;101772.25;5089815;28;20546;-85
2022/05/21 12:00:24;;;;;;;5.57;2.38;;;;;;;24.54;33.55;101778.16;5066820;28;20454;-81
2022/05/21 12:02:53;;;;;;;4.32;2.00;;;;;;;24.53;33.47;101782.00;5085944;28;20044;-80
2022/05/21 12:05:41;;;;;;;5.07;2.22;;;;;;;24.49;32.81;101776.94;5070475;28;20099;-82
2022/05/21 12:08:27;;;;;;;3.80;1.92;;;;;;;24.50;33.20;101779.56;5060512;28;20040;-80
2022/05/21 12:10:54;;;;;;;4.50;2.30;;;;;;;24.45;33.96;101779.22;5083699;28;20440;-82
2022/05/21 12:13:31;;;;;;;3.65;2.00;;;;;;;24.48;33.18;101773.28;5083467;28;20468;-80
2022/05/21 12:15:58;;;;;;;4.85;2.15;;;;;;;24.44;33.84;101768.25;5061798;28;20064;-80
2022/05/21 12:18:41;;;;;;;5.80;2.10;;;;;;;24.47;33.27;101777.09;5083950;28;20563;-82